Time;durP1;ratioP1;P1;durP2;ratioP2;P2;SDS_P1;SDS_P2;PMS_P1;PMS_P2;Temp;Humidity;BMP_temperature;BMP_pressure;BME280_temperature;BME280_humidity;BME280_pressure;Samples;Min_cycle;Max_cycle;Signal;HPM_P1;HPM_P2
2021/04/09 00:00:06;;;;;;;3.42;2.80;;;;;;;-3.79;91.63;93279.00;2098745;28;20052;-80
2021/04/09 00:01:06;;;;;;;3.63;2.63;;;;;;;-3.87;92.16;93274.63;2090384;28;20021;-78
2021/04/09 00:02:10;;;;;;;4.03;2.53;;;;;;;-3.94;92.04;93288.22;2089873;28;20459;-79
2021/04/09 00:03:11;;;;;;;3.85;3.30;;;;;;;-3.84;92.01;93279.22;2098434;28;20024;-80
2021/04/09 00:04:13;;;;;;;4.45;2.80;;;;;;;-3.87;92.25;93285.06;2098632;28;20438;-80
2021/04/09 00:05:19;;;;;;;3.35;2.90;;;;;;;-3.85;91.97;93277.69;2098641;28;20523;-80
2021/04/09 00:06:19;;;;;;;3.80;2.70;;;;;;;-3.75;91.25;93279.88;2091353;28;20448;-78
2021/04/09 00:07:20;;;;;;;5.32;3.03;;;;;;;-3.74;91.41;93286.63;2090028;28;20491;-78
2021/04/09 00:08:20;;;;;;;3.33;2.60;;;;;;;-3.79;91.79;93276.41;2098768;28;20064;-79
2021/04/09 00:09:21;;;;;;;3.53;2.75;;;;;;;-3.79;91.77;93271.16;2106958;28;20058;-78
2021/04/09 00:10:23;;;;;;;5.82;2.65;;;;;;;-3.86;91.95;93281.38;2098633;28;20108;-79
2021/04/09 00:11:23;;;;;;;3.15;2.70;;;;;;;-3.86;92.13;93279.53;2090270;28;20428;-78
2021/04/09 00:12:24;;;;;;;3.00;2.60;;;;;;;-3.85;92.09;93273.22;2098467;28;20454;-79
2021/04/09 00:13:24;;;;;;;2.88;2.60;;;;;;;-3.89;91.31;93279.41;2106958;28;20012;-78
2021/04/09 00:14:25;;;;;;;4.82;3.30;;;;;;;-3.92;91.80;93275.59;2098640;28;20025;-79
2021/04/09 00:15:25;;;;;;;2.70;2.40;;;;;;;-3.90;92.77;93268.22;2106788;28;20024;-79
2021/04/09 00:16:26;;;;;;;3.50;2.72;;;;;;;-3.90;93.08;93270.81;2106835;28;20016;-79
2021/04/09 00:17:26;;;;;;;3.63;2.92;;;;;;;-3.89;93.71;93274.19;2090239;28;20052;-79
2021/04/09 00:18:27;;;;;;;3.95;2.83;;;;;;;-3.85;92.89;93273.22;2098210;28;20029;-79
2021/04/09 00:19:27;;;;;;;2.95;2.72;;;;;;;-3.89;93.46;93272.34;2102083;28;20110;-78
2021/04/09 00:20:28;;;;;;;2.67;2.42;;;;;;;-3.87;92.34;93267.53;2114731;28;20023;-77
2021/04/09 00:21:28;;;;;;;3.53;2.65;;;;;;;-3.86;91.09;93263.88;2098286;28;20035;-79
2021/04/09 00:22:29;;;;;;;3.80;2.45;;;;;;;-3.90;92.03;93265.59;2090169;28;20025;-79
2021/04/09 00:23:29;;;;;;;5.07;2.83;;;;;;;-3.87;90.75;93269.41;2106595;28;20027;-79
2021/04/09 00:24:29;;;;;;;3.88;2.83;;;;;;;-3.86;90.31;93263.13;2098384;28;20025;-78
2021/04/09 00:25:30;;;;;;;3.35;2.70;;;;;;;-3.88;90.89;93258.19;2106650;28;20636;-79
2021/04/09 00:26:30;;;;;;;3.63;2.55;;;;;;;-3.96;91.82;93256.41;2115097;28;20020;-80
2021/04/09 00:27:31;;;;;;;4.00;2.88;;;;;;;-3.96;91.08;93258.28;2097576;28;20112;-79
2021/04/09 00:28:31;;;;;;;5.63;3.10;;;;;;;-3.99;92.14;93257.09;2098254;28;20601;-78
2021/04/09 00:29:31;;;;;;;3.80;2.97;;;;;;;-3.99;91.04;93261.53;2106759;28;20046;-79
2021/04/09 00:30:32;;;;;;;3.95;2.58;;;;;;;-4.01;90.99;93254.00;2106513;28;20079;-78
2021/04/09 00:31:33;;;;;;;3.67;2.60;;;;;;;-4.02;92.04;93255.09;2098477;28;20062;-79
2021/04/09 00:32:34;;;;;;;4.35;2.75;;;;;;;-4.02;92.29;93247.28;2115245;28;20020;-78
2021/04/09 00:33:34;;;;;;;3.85;2.72;;;;;;;-4.02;92.24;93259.56;2098337;28;20461;-79
2021/04/09 00:34:35;;;;;;;3.40;2.65;;;;;;;-3.97;91.45;93254.91;2098177;28;20396;-78
2021/04/09 00:35:35;;;;;;;2.85;2.45;;;;;;;-3.92;91.86;93256.53;2098214;28;20074;-79
2021/04/09 00:36:36;;;;;;;4.00;2.50;;;;;;;-3.96;91.35;93256.41;2097788;28;20113;-79
2021/04/09 00:37:37;;;;;;;3.88;2.60;;;;;;;-3.96;91.63;93255.66;2106779;28;20031;-78
2021/04/09 00:38:37;;;;;;;4.28;2.85;;;;;;;-4.02;92.17;93256.94;2097799;28;20473;-79
2021/04/09 00:39:38;;;;;;;3.13;2.83;;;;;;;-4.06;91.41;93262.03;2089791;28;20040;-80
2021/04/09 00:40:39;;;;;;;3.67;2.55;;;;;;;-4.03;91.49;93258.03;2098184;28;20028;-77
2021/04/09 00:41:40;;;;;;;3.33;2.15;;;;;;;-3.99;91.54;93258.94;2106521;28;20038;-78
2021/04/09 00:42:42;;;;;;;4.63;2.30;;;;;;;-3.99;91.75;93254.47;2106790;28;20801;-79
2021/04/09 00:43:47;;;;;;;3.25;2.70;;;;;;;-3.99;91.46;93251.88;2106415;28;20484;-79
2021/04/09 00:44:47;;;;;;;3.65;2.25;;;;;;;-3.99;91.94;93251.09;2090497;28;20489;-79
2021/04/09 00:45:48;;;;;;;6.05;2.80;;;;;;;-3.96;91.49;93250.44;2097960;28;20936;-78
2021/04/09 00:46:48;;;;;;;4.25;2.92;;;;;;;-3.92;91.06;93246.09;2106734;28;20020;-78
2021/04/09 00:47:49;;;;;;;6.55;2.67;;;;;;;-3.93;91.02;93247.19;2103079;28;20069;-78
2021/04/09 00:48:50;;;;;;;3.28;2.67;;;;;;;-3.93;90.02;93245.34;2099073;28;20028;-79
2021/04/09 00:49:50;;;;;;;3.63;2.50;;;;;;;-3.99;90.43;93254.47;2098041;28;20056;-80
2021/04/09 00:50:51;;;;;;;3.60;2.47;;;;;;;-4.01;91.49;93248.78;2097879;28;20024;-79
2021/04/09 00:51:51;;;;;;;3.42;2.20;;;;;;;-3.94;91.76;93250.91;2103531;28;20226;-79
2021/04/09 00:52:53;;;;;;;2.75;2.38;;;;;;;-3.90;91.76;93242.09;2106529;28;20110;-80
2021/04/09 00:53:53;;;;;;;4.75;2.60;;;;;;;-3.94;90.96;93241.22;2114749;28;20034;-78
2021/04/09 00:54:54;;;;;;;2.97;2.10;;;;;;;-3.97;91.17;93238.47;2097786;28;20465;-79
2021/04/09 00:55:55;;;;;;;4.40;2.33;;;;;;;-4.03;91.45;93240.53;2093527;28;20028;-79
2021/04/09 00:56:56;;;;;;;2.53;2.22;;;;;;;-4.03;92.01;93239.78;2106218;28;20031;-79
2021/04/09 00:57:58;;;;;;;2.88;2.50;;;;;;;-4.05;91.34;93247.91;2104237;28;20514;-79
2021/04/09 00:59:01;;;;;;;3.13;2.30;;;;;;;-3.97;91.25;93241.09;2106325;28;20430;-80
2021/04/09 01:00:07;;;;;;;3.08;2.42;;;;;;;-4.06;91.43;93243.78;2105082;28;20446;-79
2021/04/09 01:01:08;;;;;;;3.40;2.47;;;;;;;-4.05;90.83;93245.28;2102097;28;20484;-79
2021/04/09 01:02:09;;;;;;;4.93;3.00;;;;;;;-4.06;90.92;93241.91;2097788;28;20869;-80
2021/04/09 01:03:10;;;;;;;3.45;2.58;;;;;;;-4.01;91.52;93240.19;2097781;28;20023;-79
2021/04/09 01:04:10;;;;;;;4.85;2.67;;;;;;;-4.00;90.87;93236.50;2098076;28;20031;-80
2021/04/09 01:05:13;;;;;;;4.47;2.58;;;;;;;-4.01;90.98;93248.78;2085049;28;20040;-79
2021/04/09 01:06:14;;;;;;;5.90;2.95;;;;;;;-3.99;90.52;93245.88;2097545;28;20078;-80
2021/04/09 01:07:14;;;;;;;2.60;2.15;;;;;;;-4.03;90.41;93240.53;2101766;28;20473;-79
2021/04/09 01:08:16;;;;;;;3.00;2.67;;;;;;;-4.08;90.36;93249.31;2114669;28;20441;-79
2021/04/09 01:09:16;;;;;;;4.47;2.35;;;;;;;-4.08;91.07;93244.09;2122900;27;20019;-79
2021/04/09 01:10:19;;;;;;;2.80;2.50;;;;;;;-4.02;90.37;93246.50;2114776;28;20545;-78
2021/04/09 01:11:20;;;;;;;3.70;2.40;;;;;;;-3.93;90.04;93239.38;2097926;28;20420;-78
2021/04/09 01:12:20;;;;;;;4.93;2.72;;;;;;;-4.00;89.46;93245.09;2098229;28;20447;-78
2021/04/09 01:13:20;;;;;;;4.10;2.40;;;;;;;-4.01;90.08;93246.19;2105980;28;20024;-80
2021/04/09 01:14:21;;;;;;;3.10;2.08;;;;;;;-4.12;90.31;93251.03;2105892;28;20038;-79
2021/04/09 01:15:22;;;;;;;2.58;2.13;;;;;;;-4.10;91.01;93248.09;2091970;28;20036;-78
2021/04/09 01:16:50;;;;;;;3.25;2.40;;;;;;;-4.14;89.78;93249.81;2105915;28;20111;-79
2021/04/09 01:18:05;;;;;;;4.47;2.53;;;;;;;-4.19;89.39;93247.41;2094000;28;20455;-80
2021/04/09 01:19:17;;;;;;;3.30;2.28;;;;;;;-4.12;89.52;93245.81;2093078;28;20439;-79
2021/04/09 01:20:40;;;;;;;2.65;2.40;;;;;;;-4.21;90.23;93246.97;2099515;28;20446;-78
2021/04/09 01:21:52;;;;;;;2.50;2.28;;;;;;;-4.17;90.08;93250.44;2107413;27;20455;-78
2021/04/09 01:23:14;;;;;;;3.75;2.40;;;;;;;-4.20;90.04;93241.44;2106332;28;20446;-80
2021/04/09 01:24:29;;;;;;;2.50;2.03;;;;;;;-4.22;89.32;93248.81;2097564;28;20776;-78
2021/04/09 01:25:38;;;;;;;3.28;2.35;;;;;;;-4.27;90.46;93246.41;2098370;28;20453;-80
2021/04/09 01:26:54;;;;;;;2.97;2.47;;;;;;;-4.37;90.86;93238.97;2106006;28;20406;-78
2021/04/09 01:28:04;;;;;;;4.28;2.67;;;;;;;-4.27;90.55;93250.84;2106299;28;20998;-79
2021/04/09 01:29:11;;;;;;;2.90;2.50;;;;;;;-4.24;90.57;93234.56;2097734;28;20442;-78
2021/04/09 01:30:52;;;;;;;2.78;2.33;;;;;;;-4.24;90.58;93235.31;2091288;28;20444;-79
2021/04/09 01:31:57;;;;;;;2.90;2.20;;;;;;;-4.25;89.83;93228.59;2091676;28;20487;-79
2021/04/09 01:33:00;;;;;;;3.25;2.53;;;;;;;-4.21;89.72;93232.09;2097863;28;20541;-80
2021/04/09 01:34:01;;;;;;;3.22;2.35;;;;;;;-4.26;89.96;93229.66;2102574;28;20487;-79
2021/04/09 01:35:14;;;;;;;3.63;2.63;;;;;;;-4.25;90.09;93230.44;2106424;28;20448;-80
2021/04/09 01:36:25;;;;;;;3.58;2.50;;;;;;;-4.34;90.95;93225.28;2107579;28;20437;-78
2021/04/09 01:37:30;;;;;;;2.83;2.40;;;;;;;-4.31;91.17;93230.59;2114112;28;20476;-78
2021/04/09 01:38:36;;;;;;;5.07;2.72;;;;;;;-4.29;90.18;93222.47;2106621;28;20461;-79
2021/04/09 01:39:56;;;;;;;6.40;2.55;;;;;;;-4.18;89.76;93226.22;2098312;28;20458;-79
2021/04/09 01:41:00;;;;;;;4.28;2.60;;;;;;;-4.28;89.72;93228.47;2112029;28;20494;-79
2021/04/09 01:42:06;;;;;;;3.63;2.30;;;;;;;-4.37;90.20;93224.06;2106270;28;20024;-80
2021/04/09 01:43:11;;;;;;;2.63;2.42;;;;;;;-4.33;91.04;93219.75;2114676;28;20409;-80
2021/04/09 01:44:13;;;;;;;4.05;2.80;;;;;;;-4.33;89.46;93226.81;2115036;28;20939;-80
2021/04/09 01:45:14;;;;;;;4.40;2.55;;;;;;;-4.49;89.86;93216.19;2106225;28;21056;-79
2021/04/09 01:46:15;;;;;;;7.68;2.72;;;;;;;-4.49;90.16;93213.56;2097778;28;20434;-78
2021/04/09 01:47:19;;;;;;;4.90;3.15;;;;;;;-4.46;91.55;93217.41;2096719;28;20191;-79
2021/04/09 01:48:20;;;;;;;2.83;2.40;;;;;;;-4.35;92.19;93213.31;2103465;28;20499;-79
2021/04/09 01:49:23;;;;;;;4.07;2.28;;;;;;;-4.31;92.08;93211.59;2105301;28;20492;-79
2021/04/09 01:50:26;;;;;;;2.75;2.33;;;;;;;-4.30;91.86;93205.31;2106477;28;20110;-79
2021/04/09 01:51:27;;;;;;;3.00;2.35;;;;;;;-4.29;92.22;93206.81;2090629;28;20472;-80
2021/04/09 01:52:31;;;;;;;3.38;2.35;;;;;;;-4.26;92.51;93210.63;2082821;28;20435;-79
2021/04/09 01:53:32;;;;;;;4.40;2.33;;;;;;;-4.25;91.55;93212.16;2090493;28;20404;-79
2021/04/09 01:54:34;;;;;;;3.83;2.15;;;;;;;-4.25;92.44;93201.72;2097512;28;20439;-78
2021/04/09 01:55:38;;;;;;;3.15;2.35;;;;;;;-4.23;92.07;93210.75;2103457;28;20027;-79
2021/04/09 01:56:40;;;;;;;2.45;2.25;;;;;;;-4.17;92.13;93206.09;2092032;28;21214;-80
2021/04/09 01:57:43;;;;;;;5.82;2.92;;;;;;;-4.20;92.56;93209.38;2089616;28;20436;-79
2021/04/09 01:58:44;;;;;;;2.45;2.13;;;;;;;-4.22;92.75;93208.91;2106251;28;20417;-79
2021/04/09 01:59:46;;;;;;;4.75;2.20;;;;;;;-4.30;92.12;93210.53;2122585;27;20428;-80
2021/04/09 02:00:47;;;;;;;3.08;2.30;;;;;;;-4.32;92.32;93210.06;2102520;28;20024;-79
2021/04/09 02:01:49;;;;;;;2.58;2.20;;;;;;;-4.25;91.53;93210.31;2097095;28;20438;-81
2021/04/09 02:04:27;;;;;;;2.95;2.33;;;;;;;-4.21;90.87;93203.38;2148311;27;20105;-79
2021/04/09 02:05:29;;;;;;;3.72;2.70;;;;;;;-4.23;92.23;93210.75;2121656;28;20034;-78
2021/04/09 02:06:31;;;;;;;3.85;3.05;;;;;;;-4.23;93.03;93205.53;2113349;27;20441;-79
2021/04/09 02:07:31;;;;;;;4.05;2.83;;;;;;;-4.19;92.07;93203.81;2119393;27;20452;-78
2021/04/09 02:08:34;;;;;;;4.70;2.97;;;;;;;-4.31;91.15;93209.72;2110261;28;20457;-79
2021/04/09 02:09:36;;;;;;;5.20;3.30;;;;;;;-4.29;90.38;93213.91;2104773;28;20021;-79
2021/04/09 02:10:37;;;;;;;3.63;3.20;;;;;;;-4.34;91.78;93209.63;2096390;28;20439;-78
2021/04/09 02:11:39;;;;;;;4.25;3.85;;;;;;;-4.35;92.41;93202.88;2104954;28;20791;-78
2021/04/09 02:12:42;;;;;;;3.92;3.55;;;;;;;-4.32;92.89;93204.84;2112427;28;20489;-79
2021/04/09 02:13:43;;;;;;;3.85;3.25;;;;;;;-4.41;90.84;93211.97;2104081;28;20842;-79
2021/04/09 02:14:46;;;;;;;4.40;3.92;;;;;;;-4.39;91.33;93207.19;2096270;28;20449;-80
2021/04/09 02:15:46;;;;;;;4.15;3.47;;;;;;;-4.36;92.22;93204.72;2105129;28;20438;-79
2021/04/09 02:16:47;;;;;;;4.40;3.30;;;;;;;-4.31;91.29;93201.16;2121415;28;20524;-79
2021/04/09 02:17:48;;;;;;;3.97;3.20;;;;;;;-4.32;91.19;93205.59;2120016;28;20024;-79
2021/04/09 02:18:50;;;;;;;6.38;3.20;;;;;;;-4.29;90.83;93204.22;2104430;28;20024;-80
2021/04/09 02:19:50;;;;;;;3.55;3.25;;;;;;;-4.32;91.11;93200.38;2111767;28;20460;-80
2021/04/09 02:20:51;;;;;;;3.47;3.00;;;;;;;-4.34;91.67;93207.03;2104847;28;20434;-80
2021/04/09 02:21:52;;;;;;;4.20;2.90;;;;;;;-4.36;90.89;93202.09;2096524;28;20033;-78
2021/04/09 02:22:53;;;;;;;4.07;2.83;;;;;;;-4.32;91.10;93199.63;2104711;28;20418;-78
2021/04/09 02:23:53;;;;;;;6.22;2.97;;;;;;;-4.36;91.13;93196.88;2112967;28;20020;-79
2021/04/09 02:24:55;;;;;;;6.05;2.97;;;;;;;-4.37;91.59;93190.16;2121625;28;20528;-79
2021/04/09 02:26:00;;;;;;;7.57;3.13;;;;;;;-4.36;91.56;93204.72;2116329;28;20027;-80
2021/04/09 02:27:03;;;;;;;3.17;2.88;;;;;;;-4.37;90.85;93189.41;2104586;28;20441;-78
2021/04/09 02:28:04;;;;;;;3.63;2.72;;;;;;;-4.38;90.69;93185.25;2105308;28;20487;-78
2021/04/09 02:29:05;;;;;;;3.60;3.15;;;;;;;-4.34;90.64;93193.97;2104596;28;20450;-79
2021/04/09 02:30:07;;;;;;;3.20;2.90;;;;;;;-4.38;90.06;93183.41;2112776;28;20028;-79
2021/04/09 02:31:11;;;;;;;4.53;2.90;;;;;;;-4.41;91.30;93188.50;2104541;28;20427;-78
2021/04/09 02:32:12;;;;;;;3.70;3.10;;;;;;;-4.27;91.30;93183.78;2096674;28;20435;-79
2021/04/09 02:33:12;;;;;;;3.22;2.92;;;;;;;-4.35;91.76;93187.97;2104506;28;20436;-79
2021/04/09 02:34:12;;;;;;;3.35;2.70;;;;;;;-4.31;90.89;93183.66;2112800;28;20388;-79
2021/04/09 02:35:14;;;;;;;3.55;2.60;;;;;;;-4.33;90.68;93179.84;2112811;28;20020;-79
2021/04/09 02:36:19;;;;;;;4.40;3.00;;;;;;;-4.32;90.39;93186.59;2112591;28;20892;-78
2021/04/09 02:37:21;;;;;;;2.65;2.45;;;;;;;-4.29;91.04;93185.94;2104634;28;20442;-78
2021/04/09 02:38:27;;;;;;;3.00;2.80;;;;;;;-4.19;91.20;93190.75;2107792;28;20459;-80
2021/04/09 02:39:32;;;;;;;2.75;2.30;;;;;;;-4.20;91.00;93183.25;2104665;28;20434;-79
2021/04/09 02:40:35;;;;;;;3.65;2.78;;;;;;;-4.11;90.30;93186.56;2114089;27;20420;-78
2021/04/09 02:41:38;;;;;;;4.38;2.47;;;;;;;-4.21;90.84;93181.75;2121227;28;20514;-78
2021/04/09 02:42:39;;;;;;;3.03;2.50;;;;;;;-4.18;89.97;93186.31;2112963;28;20504;-79
2021/04/09 02:43:40;;;;;;;4.25;2.35;;;;;;;-4.23;90.80;93184.66;2124583;27;20436;-79
2021/04/09 02:44:41;;;;;;;3.17;2.60;;;;;;;-4.23;90.65;93184.66;2111443;28;20028;-79
2021/04/09 02:45:41;;;;;;;3.85;2.38;;;;;;;-4.30;90.79;93179.22;2110246;28;20529;-78
2021/04/09 02:46:59;;;;;;;4.47;2.30;;;;;;;-4.15;90.56;93186.44;2103057;28;20110;-79
2021/04/09 02:48:02;;;;;;;4.03;2.00;;;;;;;-4.24;90.67;93183.13;2106352;28;20043;-78
2021/04/09 02:49:12;;;;;;;5.63;2.67;;;;;;;-4.26;90.78;93182.69;2096705;28;20529;-78
2021/04/09 02:50:19;;;;;;;4.22;2.75;;;;;;;-4.35;91.11;93189.81;2106710;28;20427;-78
2021/04/09 02:51:22;;;;;;;2.53;2.33;;;;;;;-4.38;90.05;93182.66;2113628;28;20421;-78
2021/04/09 02:52:26;;;;;;;3.20;2.88;;;;;;;-4.38;91.11;93175.59;2114033;27;21069;-80
2021/04/09 02:53:29;;;;;;;2.50;2.30;;;;;;;-4.42;92.65;93187.00;2112590;28;20829;-79
2021/04/09 02:54:32;;;;;;;2.67;2.47;;;;;;;-4.50;92.37;93188.56;2098376;28;20611;-79
2021/04/09 02:55:39;;;;;;;3.35;2.17;;;;;;;-4.47;91.83;93179.34;2104573;28;20472;-80
2021/04/09 02:56:40;;;;;;;4.22;2.42;;;;;;;-4.40;91.51;93188.19;2104496;28;20458;-79
2021/04/09 02:57:44;;;;;;;4.68;2.45;;;;;;;-4.47;91.90;93182.72;2095770;28;20443;-78
2021/04/09 02:58:46;;;;;;;3.05;2.75;;;;;;;-4.41;91.30;93180.69;2113332;27;20035;-79
2021/04/09 02:59:49;;;;;;;2.40;2.20;;;;;;;-4.37;91.26;93177.09;2112491;28;20451;-78
2021/04/09 03:00:52;;;;;;;3.42;2.38;;;;;;;-4.41;91.38;93180.69;2104513;28;20529;-78
2021/04/09 03:01:52;;;;;;;2.67;2.47;;;;;;;-4.45;91.97;93172.72;2113174;27;20512;-78
2021/04/09 03:02:54;;;;;;;2.55;2.20;;;;;;;-4.51;91.31;93184.44;2120884;28;20539;-79
2021/04/09 03:03:56;;;;;;;4.45;2.55;;;;;;;-4.46;91.33;93186.09;2104063;28;20041;-78
2021/04/09 03:04:57;;;;;;;3.08;2.45;;;;;;;-4.49;90.43;93178.91;2087782;28;20443;-79
2021/04/09 03:05:58;;;;;;;3.80;2.38;;;;;;;-4.47;91.79;93180.13;2095656;28;20445;-79
2021/04/09 03:06:59;;;;;;;3.33;2.10;;;;;;;-4.47;91.38;93189.78;2110218;28;20461;-79
2021/04/09 03:08:00;;;;;;;4.65;2.40;;;;;;;-4.49;91.10;93176.28;2112094;28;20456;-79
2021/04/09 03:09:00;;;;;;;2.72;2.53;;;;;;;-4.48;91.89;93185.63;2112470;28;20081;-81
2021/04/09 03:10:01;;;;;;;3.30;2.88;;;;;;;-4.43;90.96;93182.84;2110110;28;20032;-78
2021/04/09 03:11:03;;;;;;;3.53;2.33;;;;;;;-4.24;90.56;93188.34;2112558;28;20027;-81
2021/04/09 03:12:14;;;;;;;2.33;2.10;;;;;;;-4.38;90.77;93186.03;2107083;28;20035;-79
2021/04/09 03:13:14;;;;;;;4.13;2.33;;;;;;;-4.43;91.23;93180.25;2105437;28;20473;-79
2021/04/09 03:14:15;;;;;;;2.60;2.17;;;;;;;-4.49;91.00;93186.72;2104105;28;20474;-80
2021/04/09 03:15:21;;;;;;;2.83;2.20;;;;;;;-4.49;91.62;93184.13;2093298;28;20021;-78
2021/04/09 03:16:25;;;;;;;2.75;2.20;;;;;;;-4.47;91.17;93187.94;2105472;28;20993;-80
2021/04/09 03:17:30;;;;;;;3.15;2.17;;;;;;;-4.46;92.85;93176.41;2098385;28;20430;-80
2021/04/09 03:18:37;;;;;;;2.67;1.92;;;;;;;-4.37;91.99;93179.72;2095058;28;20474;-80
2021/04/09 03:19:38;;;;;;;3.03;2.28;;;;;;;-4.31;91.43;93175.06;2103190;28;20985;-80
2021/04/09 03:20:40;;;;;;;2.90;2.30;;;;;;;-4.34;91.26;93183.53;2098503;28;20435;-80
2021/04/09 03:21:41;;;;;;;2.95;2.15;;;;;;;-4.26;91.89;93179.31;2090243;28;21077;-79
2021/04/09 03:22:41;;;;;;;3.25;2.40;;;;;;;-4.22;90.39;93182.81;2090026;28;20450;-80
2021/04/09 03:23:41;;;;;;;2.67;2.25;;;;;;;-4.37;90.37;93173.75;2082060;28;20080;-80
2021/04/09 03:24:42;;;;;;;2.65;2.10;;;;;;;-4.31;91.60;93178.44;2097983;28;20024;-80
2021/04/09 03:25:42;;;;;;;2.58;2.15;;;;;;;-4.33;91.06;93172.03;2097995;28;20020;-79
2021/04/09 03:26:43;;;;;;;2.80;2.53;;;;;;;-4.35;91.33;93174.94;2089696;28;20035;-78
2021/04/09 03:27:43;;;;;;;2.75;2.20;;;;;;;-4.37;92.02;93171.13;2081458;28;20025;-79
2021/04/09 03:28:44;;;;;;;3.60;2.30;;;;;;;-4.41;92.00;93178.06;2089891;28;20027;-79
2021/04/09 03:29:44;;;;;;;3.53;2.25;;;;;;;-4.43;91.91;93175.78;2081841;28;20017;-79
2021/04/09 03:30:49;;;;;;;2.63;2.20;;;;;;;-4.39;91.34;93174.06;2090213;28;20025;-80
2021/04/09 03:31:50;;;;;;;2.70;2.30;;;;;;;-4.38;91.65;93167.75;2090728;28;20096;-79
2021/04/09 03:32:50;;;;;;;3.15;2.35;;;;;;;-4.35;91.44;93172.31;2098271;28;20484;-80
2021/04/09 03:33:51;;;;;;;2.40;2.20;;;;;;;-4.22;91.22;93175.75;2089832;28;20555;-80
2021/04/09 03:34:51;;;;;;;3.15;2.55;;;;;;;-4.22;89.87;93172.38;2098090;28;20040;-80
2021/04/09 03:35:52;;;;;;;4.22;2.20;;;;;;;-4.26;90.38;93164.41;2098223;28;20020;-81
2021/04/09 03:36:52;;;;;;;3.58;2.40;;;;;;;-4.28;90.89;93173.66;2098446;28;20024;-79
2021/04/09 03:37:53;;;;;;;3.53;2.20;;;;;;;-4.28;90.90;93171.06;2095027;28;20028;-78
2021/04/09 03:38:53;;;;;;;2.60;2.22;;;;;;;-4.31;92.03;93168.00;2098350;28;20025;-78
2021/04/09 03:39:54;;;;;;;2.90;2.40;;;;;;;-4.20;90.97;93170.22;2106693;28;20031;-80
2021/04/09 03:40:54;;;;;;;3.42;2.17;;;;;;;-4.16;90.03;93161.44;2098006;28;20457;-79
2021/04/09 03:41:54;;;;;;;3.80;2.35;;;;;;;-4.20;90.69;93168.38;2098377;28;20032;-81
2021/04/09 03:42:55;;;;;;;2.95;2.30;;;;;;;-4.15;91.33;93156.97;2106560;28;20377;-80
2021/04/09 03:43:55;;;;;;;2.80;2.45;;;;;;;-4.19;90.33;93162.06;2100950;28;20055;-79
2021/04/09 03:44:55;;;;;;;2.72;1.98;;;;;;;-4.14;90.60;93163.69;2090243;28;20032;-79
2021/04/09 03:45:56;;;;;;;3.67;2.13;;;;;;;-4.17;90.46;93165.13;2086318;28;20025;-78
2021/04/09 03:46:56;;;;;;;5.32;2.22;;;;;;;-4.25;89.47;93171.19;2106679;28;20112;-79
2021/04/09 03:47:57;;;;;;;2.47;2.25;;;;;;;-4.24;90.26;93164.88;2106528;28;20476;-79
2021/04/09 03:48:57;;;;;;;4.00;2.30;;;;;;;-4.22;91.12;93167.16;2098231;28;20078;-78
2021/04/09 03:49:57;;;;;;;3.05;2.17;;;;;;;-4.22;90.88;93164.53;2098278;28;20075;-80
2021/04/09 03:50:58;;;;;;;2.50;2.30;;;;;;;-4.15;90.05;93159.56;2081637;28;20025;-79
2021/04/09 03:52:00;;;;;;;4.97;2.15;;;;;;;-4.13;89.85;93163.38;2081833;28;20025;-79
2021/04/09 03:53:03;;;;;;;4.03;2.10;;;;;;;-4.08;89.17;93162.44;2086134;28;20025;-79
2021/04/09 03:54:04;;;;;;;2.67;2.28;;;;;;;-4.03;90.32;93161.47;2098279;28;20442;-77
2021/04/09 03:55:12;;;;;;;2.80;2.28;;;;;;;-4.08;89.84;93163.19;2098163;28;20434;-80
2021/04/09 03:56:12;;;;;;;3.67;2.10;;;;;;;-4.15;89.71;93165.56;2099864;28;20492;-79
2021/04/09 03:57:12;;;;;;;5.00;2.47;;;;;;;-4.12;90.16;93159.69;2106559;28;20446;-78
2021/04/09 03:58:13;;;;;;;2.63;2.42;;;;;;;-4.04;89.30;93163.28;2098088;28;20511;-80
2021/04/09 03:59:14;;;;;;;2.58;2.20;;;;;;;-4.01;89.09;93164.50;2098169;28;20025;-79
2021/04/09 04:00:14;;;;;;;2.72;2.45;;;;;;;-3.93;88.11;93161.03;2110795;28;20026;-79
2021/04/09 04:01:15;;;;;;;2.85;2.30;;;;;;;-3.91;89.12;93161.47;2106538;28;20047;-81
2021/04/09 04:02:15;;;;;;;2.58;2.38;;;;;;;-3.95;89.20;93157.97;2106699;28;20091;-81
2021/04/09 04:03:16;;;;;;;2.70;2.40;;;;;;;-3.99;89.93;93155.28;2114791;28;20049;-78
2021/04/09 04:04:16;;;;;;;3.53;2.50;;;;;;;-3.99;89.43;93155.28;2106246;28;20040;-80
2021/04/09 04:05:17;;;;;;;3.25;2.00;;;;;;;-4.02;88.58;93157.75;2105947;28;20868;-80
2021/04/09 04:06:18;;;;;;;3.53;2.42;;;;;;;-3.94;89.80;93157.69;2106302;28;20031;-79
2021/04/09 04:07:18;;;;;;;2.60;2.40;;;;;;;-3.92;89.73;93150.28;2089835;28;20432;-80
2021/04/09 04:08:19;;;;;;;2.72;2.40;;;;;;;-3.92;89.57;93159.94;2089611;28;20410;-79
2021/04/09 04:09:19;;;;;;;2.80;2.45;;;;;;;-3.92;89.22;93157.34;2098106;28;20820;-79
2021/04/09 04:10:20;;;;;;;4.32;2.72;;;;;;;-3.94;88.75;93156.91;2098276;28;20024;-79
2021/04/09 04:11:20;;;;;;;4.82;2.65;;;;;;;-3.93;88.91;93161.81;2106344;28;20020;-78
2021/04/09 04:12:20;;;;;;;4.40;2.55;;;;;;;-3.82;88.48;93157.69;2106454;28;20024;-79
2021/04/09 04:13:22;;;;;;;3.05;2.60;;;;;;;-3.81;89.56;93154.00;2089954;28;20812;-80
2021/04/09 04:14:23;;;;;;;7.10;2.50;;;;;;;-3.83;89.37;93148.31;2098354;28;20052;-78
2021/04/09 04:15:23;;;;;;;2.60;2.17;;;;;;;-3.81;90.64;93161.06;2106248;28;20461;-78
2021/04/09 04:16:24;;;;;;;3.70;2.40;;;;;;;-3.84;89.20;93146.81;2089703;28;20057;-78
2021/04/09 04:17:24;;;;;;;3.50;2.63;;;;;;;-3.78;90.23;93144.75;2091058;28;20473;-79
2021/04/09 04:18:24;;;;;;;3.40;2.50;;;;;;;-3.84;88.41;93156.50;2098115;28;20058;-81
2021/04/09 04:19:25;;;;;;;2.72;2.47;;;;;;;-3.82;87.90;93147.25;2093291;28;20024;-78
2021/04/09 04:20:25;;;;;;;4.65;2.40;;;;;;;-3.83;87.90;93150.19;2114730;28;20028;-78
2021/04/09 04:21:26;;;;;;;5.72;3.10;;;;;;;-3.72;87.58;93143.47;2100580;28;20078;-79
2021/04/09 04:22:26;;;;;;;3.95;3.45;;;;;;;-3.69;87.34;93155.09;2098211;28;20024;-79
2021/04/09 04:23:27;;;;;;;4.00;2.42;;;;;;;-3.73;87.94;93146.38;2105978;28;20034;-79
2021/04/09 04:24:27;;;;;;;3.78;2.83;;;;;;;-3.70;87.41;93143.88;2097922;28;20021;-79
2021/04/09 04:25:28;;;;;;;7.75;2.92;;;;;;;-3.72;86.67;93150.53;2098267;28;20028;-80
2021/04/09 04:26:28;;;;;;;4.97;2.70;;;;;;;-3.73;87.50;93148.97;2106077;28;20107;-79
2021/04/09 04:27:29;;;;;;;4.80;2.80;;;;;;;-3.67;87.18;93152.94;2097090;28;20078;-79
2021/04/09 04:28:31;;;;;;;3.90;2.50;;;;;;;-3.68;87.28;93143.56;2106070;28;20063;-78
2021/04/09 04:29:31;;;;;;;2.65;2.10;;;;;;;-3.52;87.43;93149.66;2097941;28;20020;-79
2021/04/09 04:30:32;;;;;;;3.10;2.60;;;;;;;-3.62;87.26;93142.25;2108553;28;21009;-79
2021/04/09 04:31:32;;;;;;;4.57;2.75;;;;;;;-3.66;87.63;93149.22;2114517;28;20057;-79
2021/04/09 04:32:33;;;;;;;4.65;2.75;;;;;;;-3.73;87.65;93146.38;2089141;28;20025;-79
2021/04/09 04:33:33;;;;;;;2.63;2.42;;;;;;;-3.68;87.15;93141.72;2089519;28;20520;-80
2021/04/09 04:34:34;;;;;;;3.90;2.55;;;;;;;-3.68;88.47;93146.19;2094151;28;20031;-81
2021/04/09 04:35:34;;;;;;;2.60;2.40;;;;;;;-3.70;87.25;93141.28;2105253;28;20161;-81
2021/04/09 04:36:34;;;;;;;3.10;2.45;;;;;;;-3.67;87.58;93145.09;2106155;28;20028;-80
2021/04/09 04:37:35;;;;;;;4.30;2.35;;;;;;;-3.68;87.48;93133.13;2089306;28;20017;-80
2021/04/09 04:38:35;;;;;;;3.65;2.70;;;;;;;-3.76;88.34;93134.75;2097679;28;20020;-82
2021/04/09 04:39:36;;;;;;;4.05;3.30;;;;;;;-3.74;88.85;93145.63;2103286;28;20034;-81
2021/04/09 04:40:37;;;;;;;3.60;3.30;;;;;;;-3.74;88.52;93143.00;2090954;28;20047;-83
2021/04/09 04:41:38;;;;;;;2.88;2.42;;;;;;;-3.64;87.53;93131.41;2094211;28;20687;-79
2021/04/09 04:42:39;;;;;;;3.95;2.42;;;;;;;-3.64;87.75;93136.63;2098122;28;21133;-79
2021/04/09 04:43:39;;;;;;;2.30;2.10;;;;;;;-3.57;87.06;93142.03;2089269;28;20443;-80
2021/04/09 04:44:40;;;;;;;4.32;2.38;;;;;;;-3.61;87.10;93141.94;2089362;28;20029;-80
2021/04/09 04:45:40;;;;;;;7.03;4.43;;;;;;;-3.63;87.69;93136.28;2091650;28;20025;-80
2021/04/09 04:46:41;;;;;;;6.15;4.53;;;;;;;-3.63;88.04;93138.88;2093493;28;20108;-78
2021/04/09 04:47:41;;;;;;;10.38;5.30;;;;;;;-3.56;87.65;93135.72;2093593;28;20021;-80
2021/04/09 04:48:42;;;;;;;6.90;4.53;;;;;;;-3.51;87.14;93137.34;2091329;28;20032;-79
2021/04/09 04:49:42;;;;;;;4.40;4.00;;;;;;;-3.48;86.79;93147.91;2098241;28;20036;-80
2021/04/09 04:50:43;;;;;;;3.95;2.45;;;;;;;-3.53;86.41;93137.69;2095903;28;20070;-80
2021/04/09 04:51:43;;;;;;;4.32;3.45;;;;;;;-3.56;87.69;93139.13;2097697;28;20036;-77
2021/04/09 04:52:44;;;;;;;4.70;3.40;;;;;;;-3.55;87.98;93134.66;2104382;28;20476;-78
2021/04/09 04:53:44;;;;;;;6.72;4.53;;;;;;;-3.58;87.66;93143.13;2099326;28;20111;-79
2021/04/09 04:54:45;;;;;;;9.70;8.70;;;;;;;-3.60;87.98;93134.84;2095869;28;20024;-80